sensor_id;sensor_type;location;lat;lon;timestamp;P1;durP1;ratioP1;P2;durP2;ratioP2
33150;SDS011;19508;42.578;23.416;2023-09-08T00:02:05;17.02;;;10.75;;
33150;SDS011;19508;42.578;23.416;2023-09-08T00:04:30;17.27;;;10.27;;
33150;SDS011;19508;42.578;23.416;2023-09-08T00:06:57;16.83;;;9.27;;
33150;SDS011;19508;42.578;23.416;2023-09-08T00:09:23;16.45;;;10.73;;
33150;SDS011;19508;42.578;23.416;2023-09-08T00:11:49;21.50;;;10.57;;
33150;SDS011;19508;42.578;23.416;2023-09-08T00:14:14;18.42;;;9.00;;
33150;SDS011;19508;42.578;23.416;2023-09-08T00:16:39;14.15;;;9.23;;
33150;SDS011;19508;42.578;23.416;2023-09-08T00:19:08;18.08;;;8.77;;
33150;SDS011;19508;42.578;23.416;2023-09-08T00:21:34;18.38;;;7.97;;
33150;SDS011;19508;42.578;23.416;2023-09-08T00:23:59;14.82;;;8.32;;
33150;SDS011;19508;42.578;23.416;2023-09-08T00:26:26;20.33;;;7.50;;
33150;SDS011;19508;42.578;23.416;2023-09-08T00:28:51;15.75;;;7.43;;
33150;SDS011;19508;42.578;23.416;2023-09-08T00:31:17;18.80;;;6.53;;
33150;SDS011;19508;42.578;23.416;2023-09-08T00:33:42;20.33;;;6.85;;
33150;SDS011;19508;42.578;23.416;2023-09-08T00:36:09;16.00;;;6.63;;
33150;SDS011;19508;42.578;23.416;2023-09-08T00:38:34;13.93;;;6.78;;
33150;SDS011;19508;42.578;23.416;2023-09-08T00:41:00;9.57;;;6.78;;
33150;SDS011;19508;42.578;23.416;2023-09-08T00:43:26;10.95;;;6.50;;
33150;SDS011;19508;42.578;23.416;2023-09-08T00:45:51;17.77;;;6.72;;
33150;SDS011;19508;42.578;23.416;2023-09-08T00:48:20;11.95;;;5.78;;
33150;SDS011;19508;42.578;23.416;2023-09-08T00:50:45;15.38;;;6.43;;
33150;SDS011;19508;42.578;23.416;2023-09-08T00:53:11;13.35;;;5.95;;
33150;SDS011;19508;42.578;23.416;2023-09-08T00:55:37;10.88;;;6.32;;
33150;SDS011;19508;42.578;23.416;2023-09-08T00:58:05;14.10;;;6.63;;
33150;SDS011;19508;42.578;23.416;2023-09-08T01:00:30;12.10;;;5.75;;
33150;SDS011;19508;42.578;23.416;2023-09-08T01:02:57;11.32;;;6.28;;
33150;SDS011;19508;42.578;23.416;2023-09-08T01:05:23;8.32;;;5.10;;
33150;SDS011;19508;42.578;23.416;2023-09-08T01:07:49;13.02;;;5.63;;
33150;SDS011;19508;42.578;23.416;2023-09-08T01:10:16;10.35;;;6.13;;
33150;SDS011;19508;42.578;23.416;2023-09-08T01:12:42;9.93;;;6.03;;
33150;SDS011;19508;42.578;23.416;2023-09-08T01:15:07;17.80;;;6.50;;
33150;SDS011;19508;42.578;23.416;2023-09-08T01:31:24;8.35;;;6.07;;
33150;SDS011;19508;42.578;23.416;2023-09-08T01:33:50;11.57;;;6.20;;
33150;SDS011;19508;42.578;23.416;2023-09-08T01:36:15;11.18;;;6.88;;
33150;SDS011;19508;42.578;23.416;2023-09-08T01:38:41;12.55;;;6.72;;
33150;SDS011;19508;42.578;23.416;2023-09-08T01:41:06;17.50;;;6.95;;
33150;SDS011;19508;42.578;23.416;2023-09-08T01:43:32;17.45;;;6.32;;
33150;SDS011;19508;42.578;23.416;2023-09-08T01:45:57;17.83;;;7.15;;
33150;SDS011;19508;42.578;23.416;2023-09-08T01:48:23;12.75;;;7.05;;
33150;SDS011;19508;42.578;23.416;2023-09-08T01:50:48;13.60;;;6.50;;
33150;SDS011;19508;42.578;23.416;2023-09-08T01:53:14;9.07;;;6.45;;
33150;SDS011;19508;42.578;23.416;2023-09-08T01:55:39;13.57;;;6.50;;
33150;SDS011;19508;42.578;23.416;2023-09-08T01:58:05;10.75;;;6.65;;
33150;SDS011;19508;42.578;23.416;2023-09-08T02:00:30;16.95;;;5.72;;
33150;SDS011;19508;42.578;23.416;2023-09-08T02:02:56;9.52;;;6.07;;
33150;SDS011;19508;42.578;23.416;2023-09-08T02:05:26;15.15;;;6.43;;
33150;SDS011;19508;42.578;23.416;2023-09-08T02:07:52;10.55;;;6.15;;
33150;SDS011;19508;42.578;23.416;2023-09-08T02:10:17;15.05;;;6.15;;
33150;SDS011;19508;42.578;23.416;2023-09-08T02:12:43;11.60;;;6.45;;
33150;SDS011;19508;42.578;23.416;2023-09-08T02:15:08;13.35;;;6.35;;
33150;SDS011;19508;42.578;23.416;2023-09-08T02:17:36;10.15;;;5.90;;
33150;SDS011;19508;42.578;23.416;2023-09-08T02:20:09;10.15;;;6.22;;
33150;SDS011;19508;42.578;23.416;2023-09-08T02:22:35;13.52;;;6.18;;
33150;SDS011;19508;42.578;23.416;2023-09-08T02:25:01;10.52;;;6.20;;
33150;SDS011;19508;42.578;23.416;2023-09-08T02:27:26;8.90;;;5.97;;
33150;SDS011;19508;42.578;23.416;2023-09-08T02:29:52;9.60;;;6.15;;
33150;SDS011;19508;42.578;23.416;2023-09-08T02:32:18;13.57;;;5.93;;
33150;SDS011;19508;42.578;23.416;2023-09-08T02:34:43;10.98;;;5.95;;
33150;SDS011;19508;42.578;23.416;2023-09-08T02:37:08;14.80;;;6.93;;
33150;SDS011;19508;42.578;23.416;2023-09-08T02:39:34;15.63;;;7.10;;
33150;SDS011;19508;42.578;23.416;2023-09-08T02:42:00;11.85;;;6.35;;
33150;SDS011;19508;42.578;23.416;2023-09-08T02:44:25;21.75;;;7.05;;
33150;SDS011;19508;42.578;23.416;2023-09-08T02:46:52;8.43;;;5.65;;
33150;SDS011;19508;42.578;23.416;2023-09-08T02:49:17;12.68;;;6.88;;
33150;SDS011;19508;42.578;23.416;2023-09-08T02:51:42;12.15;;;6.40;;
33150;SDS011;19508;42.578;23.416;2023-09-08T02:54:08;14.45;;;6.80;;
33150;SDS011;19508;42.578;23.416;2023-09-08T02:56:33;11.02;;;7.03;;
33150;SDS011;19508;42.578;23.416;2023-09-08T02:58:58;11.40;;;6.80;;
33150;SDS011;19508;42.578;23.416;2023-09-08T03:01:24;15.70;;;7.45;;
33150;SDS011;19508;42.578;23.416;2023-09-08T03:03:49;11.50;;;7.13;;
33150;SDS011;19508;42.578;23.416;2023-09-08T03:06:17;11.95;;;6.55;;
33150;SDS011;19508;42.578;23.416;2023-09-08T03:08:44;12.38;;;6.50;;
33150;SDS011;19508;42.578;23.416;2023-09-08T03:11:09;11.88;;;6.75;;
33150;SDS011;19508;42.578;23.416;2023-09-08T03:13:35;19.67;;;7.60;;
33150;SDS011;19508;42.578;23.416;2023-09-08T03:16:05;18.90;;;7.32;;
33150;SDS011;19508;42.578;23.416;2023-09-08T03:18:32;12.43;;;7.25;;
33150;SDS011;19508;42.578;23.416;2023-09-08T03:20:59;17.25;;;6.82;;
33150;SDS011;19508;42.578;23.416;2023-09-08T03:23:34;28.15;;;8.50;;
33150;SDS011;19508;42.578;23.416;2023-09-08T03:26:07;28.17;;;8.43;;
33150;SDS011;19508;42.578;23.416;2023-09-08T03:28:33;18.83;;;7.47;;
33150;SDS011;19508;42.578;23.416;2023-09-08T03:31:03;25.10;;;8.32;;
33150;SDS011;19508;42.578;23.416;2023-09-08T03:33:28;52.88;;;11.50;;
33150;SDS011;19508;42.578;23.416;2023-09-08T03:35:54;33.13;;;8.23;;
33150;SDS011;19508;42.578;23.416;2023-09-08T03:38:20;50.78;;;11.20;;
33150;SDS011;19508;42.578;23.416;2023-09-08T03:40:46;17.45;;;8.25;;
33150;SDS011;19508;42.578;23.416;2023-09-08T03:43:11;30.02;;;8.65;;
33150;SDS011;19508;42.578;23.416;2023-09-08T03:45:37;25.90;;;8.68;;
33150;SDS011;19508;42.578;23.416;2023-09-08T03:48:02;19.50;;;7.30;;
33150;SDS011;19508;42.578;23.416;2023-09-08T03:50:28;19.13;;;7.03;;
33150;SDS011;19508;42.578;23.416;2023-09-08T03:52:54;11.68;;;7.35;;
33150;SDS011;19508;42.578;23.416;2023-09-08T03:55:20;14.95;;;7.28;;
33150;SDS011;19508;42.578;23.416;2023-09-08T03:57:46;20.67;;;7.97;;
33150;SDS011;19508;42.578;23.416;2023-09-08T04:00:11;15.35;;;7.68;;
33150;SDS011;19508;42.578;23.416;2023-09-08T04:02:37;11.23;;;6.35;;
33150;SDS011;19508;42.578;23.416;2023-09-08T04:05:03;21.33;;;7.32;;
33150;SDS011;19508;42.578;23.416;2023-09-08T04:07:28;15.15;;;7.60;;
33150;SDS011;19508;42.578;23.416;2023-09-08T04:09:54;16.92;;;7.50;;
33150;SDS011;19508;42.578;23.416;2023-09-08T04:12:19;15.68;;;7.05;;
33150;SDS011;19508;42.578;23.416;2023-09-08T04:14:44;12.75;;;7.70;;
33150;SDS011;19508;42.578;23.416;2023-09-08T04:17:10;11.20;;;6.65;;
33150;SDS011;19508;42.578;23.416;2023-09-08T04:19:35;14.35;;;7.18;;
33150;SDS011;19508;42.578;23.416;2023-09-08T04:22:01;26.40;;;7.70;;
33150;SDS011;19508;42.578;23.416;2023-09-08T04:24:26;16.67;;;8.43;;
33150;SDS011;19508;42.578;23.416;2023-09-08T04:26:51;13.27;;;7.43;;
33150;SDS011;19508;42.578;23.416;2023-09-08T04:29:17;10.32;;;7.07;;
33150;SDS011;19508;42.578;23.416;2023-09-08T04:31:42;19.60;;;8.27;;
33150;SDS011;19508;42.578;23.416;2023-09-08T04:34:07;24.23;;;8.00;;
33150;SDS011;19508;42.578;23.416;2023-09-08T04:36:33;16.20;;;7.88;;
33150;SDS011;19508;42.578;23.416;2023-09-08T04:38:58;22.90;;;9.23;;
33150;SDS011;19508;42.578;23.416;2023-09-08T04:41:24;16.77;;;8.57;;
33150;SDS011;19508;42.578;23.416;2023-09-08T04:43:49;14.27;;;8.82;;
33150;SDS011;19508;42.578;23.416;2023-09-08T04:46:15;16.50;;;7.70;;
33150;SDS011;19508;42.578;23.416;2023-09-08T04:48:40;15.65;;;8.55;;
33150;SDS011;19508;42.578;23.416;2023-09-08T04:51:07;21.50;;;7.72;;
33150;SDS011;19508;42.578;23.416;2023-09-08T04:53:32;17.55;;;8.15;;
33150;SDS011;19508;42.578;23.416;2023-09-08T04:55:58;15.70;;;7.72;;
33150;SDS011;19508;42.578;23.416;2023-09-08T04:58:24;14.40;;;8.15;;
33150;SDS011;19508;42.578;23.416;2023-09-08T05:00:49;16.60;;;8.05;;
33150;SDS011;19508;42.578;23.416;2023-09-08T05:03:14;16.05;;;7.60;;
33150;SDS011;19508;42.578;23.416;2023-09-08T05:05:40;22.02;;;8.02;;
33150;SDS011;19508;42.578;23.416;2023-09-08T05:08:05;22.45;;;7.75;;
33150;SDS011;19508;42.578;23.416;2023-09-08T05:10:31;11.07;;;7.47;;
33150;SDS011;19508;42.578;23.416;2023-09-08T05:12:56;16.52;;;7.40;;
33150;SDS011;19508;42.578;23.416;2023-09-08T05:15:21;13.05;;;6.75;;
33150;SDS011;19508;42.578;23.416;2023-09-08T05:17:47;14.50;;;6.65;;
33150;SDS011;19508;42.578;23.416;2023-09-08T05:20:12;19.42;;;6.32;;
33150;SDS011;19508;42.578;23.416;2023-09-08T05:22:38;10.98;;;6.22;;
33150;SDS011;19508;42.578;23.416;2023-09-08T05:25:04;18.38;;;6.20;;
33150;SDS011;19508;42.578;23.416;2023-09-08T05:27:30;13.65;;;5.93;;
33150;SDS011;19508;42.578;23.416;2023-09-08T05:29:57;11.27;;;6.28;;
33150;SDS011;19508;42.578;23.416;2023-09-08T05:32:22;16.02;;;6.50;;
33150;SDS011;19508;42.578;23.416;2023-09-08T05:34:47;10.38;;;6.35;;
33150;SDS011;19508;42.578;23.416;2023-09-08T05:37:13;10.25;;;5.82;;
33150;SDS011;19508;42.578;23.416;2023-09-08T05:39:38;10.25;;;5.43;;
33150;SDS011;19508;42.578;23.416;2023-09-08T05:42:04;9.13;;;5.22;;
33150;SDS011;19508;42.578;23.416;2023-09-08T05:44:29;12.93;;;5.88;;
33150;SDS011;19508;42.578;23.416;2023-09-08T05:46:55;10.93;;;5.53;;
33150;SDS011;19508;42.578;23.416;2023-09-08T05:49:20;10.02;;;4.97;;
33150;SDS011;19508;42.578;23.416;2023-09-08T05:51:46;8.82;;;5.28;;
33150;SDS011;19508;42.578;23.416;2023-09-08T05:54:11;8.20;;;4.85;;
33150;SDS011;19508;42.578;23.416;2023-09-08T05:56:37;7.18;;;4.43;;
33150;SDS011;19508;42.578;23.416;2023-09-08T05:59:03;12.57;;;5.43;;
33150;SDS011;19508;42.578;23.416;2023-09-08T06:01:29;8.63;;;4.63;;
33150;SDS011;19508;42.578;23.416;2023-09-08T06:03:55;11.13;;;5.07;;
33150;SDS011;19508;42.578;23.416;2023-09-08T06:06:21;8.50;;;4.63;;
33150;SDS011;19508;42.578;23.416;2023-09-08T06:08:47;9.27;;;4.93;;
33150;SDS011;19508;42.578;23.416;2023-09-08T06:11:23;19.70;;;9.45;;
33150;SDS011;19508;42.578;23.416;2023-09-08T06:13:48;33.28;;;15.77;;
33150;SDS011;19508;42.578;23.416;2023-09-08T06:16:14;19.98;;;6.47;;
33150;SDS011;19508;42.578;23.416;2023-09-08T06:18:39;127.32;;;23.92;;
33150;SDS011;19508;42.578;23.416;2023-09-08T06:21:08;50.55;;;15.95;;
33150;SDS011;19508;42.578;23.416;2023-09-08T06:23:34;100.82;;;21.90;;
33150;SDS011;19508;42.578;23.416;2023-09-08T06:25:59;19.38;;;7.32;;
33150;SDS011;19508;42.578;23.416;2023-09-08T06:28:26;24.15;;;12.68;;
33150;SDS011;19508;42.578;23.416;2023-09-08T06:30:54;42.38;;;18.33;;
33150;SDS011;19508;42.578;23.416;2023-09-08T06:33:20;14.10;;;6.38;;
33150;SDS011;19508;42.578;23.416;2023-09-08T06:35:47;6.80;;;4.30;;
33150;SDS011;19508;42.578;23.416;2023-09-08T06:38:12;14.50;;;8.85;;
33150;SDS011;19508;42.578;23.416;2023-09-08T06:40:38;21.50;;;4.18;;
33150;SDS011;19508;42.578;23.416;2023-09-08T06:43:04;16.77;;;5.63;;
33150;SDS011;19508;42.578;23.416;2023-09-08T06:45:30;11.73;;;3.78;;
33150;SDS011;19508;42.578;23.416;2023-09-08T06:47:55;10.27;;;3.72;;
33150;SDS011;19508;42.578;23.416;2023-09-08T06:50:21;6.57;;;3.95;;
33150;SDS011;19508;42.578;23.416;2023-09-08T06:52:48;16.20;;;3.90;;
33150;SDS011;19508;42.578;23.416;2023-09-08T06:55:14;17.27;;;4.80;;
33150;SDS011;19508;42.578;23.416;2023-09-08T06:57:41;8.45;;;3.72;;
33150;SDS011;19508;42.578;23.416;2023-09-08T07:00:09;17.83;;;3.63;;
33150;SDS011;19508;42.578;23.416;2023-09-08T07:02:38;7.38;;;3.85;;
33150;SDS011;19508;42.578;23.416;2023-09-08T07:05:04;7.00;;;4.22;;
33150;SDS011;19508;42.578;23.416;2023-09-08T07:07:36;7.70;;;3.30;;
33150;SDS011;19508;42.578;23.416;2023-09-08T07:10:05;7.47;;;3.15;;
33150;SDS011;19508;42.578;23.416;2023-09-08T07:12:31;6.03;;;3.25;;
33150;SDS011;19508;42.578;23.416;2023-09-08T07:14:56;6.60;;;3.17;;
33150;SDS011;19508;42.578;23.416;2023-09-08T07:17:22;11.65;;;3.75;;
33150;SDS011;19508;42.578;23.416;2023-09-08T07:19:48;15.32;;;3.15;;
33150;SDS011;19508;42.578;23.416;2023-09-08T07:22:14;12.85;;;3.22;;
33150;SDS011;19508;42.578;23.416;2023-09-08T07:24:40;5.25;;;2.97;;
33150;SDS011;19508;42.578;23.416;2023-09-08T07:27:05;6.20;;;3.33;;
33150;SDS011;19508;42.578;23.416;2023-09-08T07:29:30;3.72;;;2.70;;
33150;SDS011;19508;42.578;23.416;2023-09-08T07:31:56;7.07;;;3.17;;
33150;SDS011;19508;42.578;23.416;2023-09-08T07:34:21;16.20;;;2.97;;
33150;SDS011;19508;42.578;23.416;2023-09-08T07:36:47;5.68;;;3.08;;
33150;SDS011;19508;42.578;23.416;2023-09-08T07:39:14;6.47;;;2.85;;
33150;SDS011;19508;42.578;23.416;2023-09-08T07:41:39;12.18;;;3.50;;
33150;SDS011;19508;42.578;23.416;2023-09-08T07:44:05;8.82;;;3.28;;
33150;SDS011;19508;42.578;23.416;2023-09-08T07:46:32;13.50;;;3.42;;
33150;SDS011;19508;42.578;23.416;2023-09-08T07:48:58;9.30;;;3.10;;
33150;SDS011;19508;42.578;23.416;2023-09-08T07:51:24;4.22;;;2.70;;
33150;SDS011;19508;42.578;23.416;2023-09-08T07:53:53;5.88;;;2.88;;
33150;SDS011;19508;42.578;23.416;2023-09-08T07:56:18;6.22;;;3.03;;
33150;SDS011;19508;42.578;23.416;2023-09-08T07:58:44;7.70;;;2.78;;
33150;SDS011;19508;42.578;23.416;2023-09-08T08:01:09;9.07;;;2.53;;
33150;SDS011;19508;42.578;23.416;2023-09-08T08:03:35;6.15;;;2.55;;
33150;SDS011;19508;42.578;23.416;2023-09-08T08:06:01;5.38;;;2.70;;
33150;SDS011;19508;42.578;23.416;2023-09-08T08:08:27;7.95;;;2.75;;
33150;SDS011;19508;42.578;23.416;2023-09-08T08:10:52;16.10;;;2.58;;
33150;SDS011;19508;42.578;23.416;2023-09-08T08:13:17;18.60;;;2.95;;
33150;SDS011;19508;42.578;23.416;2023-09-08T08:15:43;6.80;;;3.03;;
33150;SDS011;19508;42.578;23.416;2023-09-08T08:18:10;4.13;;;2.50;;
33150;SDS011;19508;42.578;23.416;2023-09-08T08:20:36;5.65;;;3.25;;
33150;SDS011;19508;42.578;23.416;2023-09-08T08:23:02;4.00;;;2.55;;
33150;SDS011;19508;42.578;23.416;2023-09-08T08:25:28;11.15;;;2.53;;
33150;SDS011;19508;42.578;23.416;2023-09-08T08:27:53;8.80;;;2.95;;
33150;SDS011;19508;42.578;23.416;2023-09-08T08:30:19;7.75;;;2.55;;
33150;SDS011;19508;42.578;23.416;2023-09-08T08:32:45;5.60;;;2.42;;
33150;SDS011;19508;42.578;23.416;2023-09-08T08:35:10;3.75;;;2.47;;
33150;SDS011;19508;42.578;23.416;2023-09-08T08:37:36;7.82;;;2.67;;
33150;SDS011;19508;42.578;23.416;2023-09-08T08:40:01;6.30;;;2.65;;
33150;SDS011;19508;42.578;23.416;2023-09-08T08:42:32;10.52;;;2.70;;
33150;SDS011;19508;42.578;23.416;2023-09-08T08:44:58;9.25;;;3.17;;
33150;SDS011;19508;42.578;23.416;2023-09-08T08:47:24;7.25;;;2.60;;
33150;SDS011;19508;42.578;23.416;2023-09-08T08:49:52;7.40;;;3.08;;
33150;SDS011;19508;42.578;23.416;2023-09-08T08:52:20;4.35;;;2.50;;
33150;SDS011;19508;42.578;23.416;2023-09-08T08:54:45;9.98;;;2.78;;
33150;SDS011;19508;42.578;23.416;2023-09-08T08:57:12;5.07;;;2.63;;
33150;SDS011;19508;42.578;23.416;2023-09-08T08:59:38;6.03;;;2.78;;
33150;SDS011;19508;42.578;23.416;2023-09-08T09:02:04;5.43;;;3.00;;
33150;SDS011;19508;42.578;23.416;2023-09-08T09:04:30;7.22;;;2.92;;
33150;SDS011;19508;42.578;23.416;2023-09-08T09:06:56;10.57;;;2.83;;
33150;SDS011;19508;42.578;23.416;2023-09-08T09:09:22;7.07;;;2.92;;
33150;SDS011;19508;42.578;23.416;2023-09-08T09:11:49;17.63;;;4.25;;
33150;SDS011;19508;42.578;23.416;2023-09-08T09:14:15;7.45;;;3.05;;
33150;SDS011;19508;42.578;23.416;2023-09-08T09:16:42;11.23;;;3.78;;
33150;SDS011;19508;42.578;23.416;2023-09-08T09:19:09;18.05;;;3.30;;
33150;SDS011;19508;42.578;23.416;2023-09-08T09:21:48;5.45;;;3.10;;
33150;SDS011;19508;42.578;23.416;2023-09-08T09:24:17;8.23;;;3.28;;
33150;SDS011;19508;42.578;23.416;2023-09-08T09:26:53;13.50;;;3.53;;
33150;SDS011;19508;42.578;23.416;2023-09-08T09:29:18;5.65;;;3.22;;
33150;SDS011;19508;42.578;23.416;2023-09-08T09:31:50;12.32;;;4.05;;
33150;SDS011;19508;42.578;23.416;2023-09-08T09:34:20;8.32;;;3.33;;
33150;SDS011;19508;42.578;23.416;2023-09-08T09:36:50;7.28;;;3.42;;
33150;SDS011;19508;42.578;23.416;2023-09-08T09:39:17;5.20;;;3.10;;
33150;SDS011;19508;42.578;23.416;2023-09-08T09:41:46;4.82;;;3.20;;
33150;SDS011;19508;42.578;23.416;2023-09-08T09:44:13;11.35;;;3.33;;
33150;SDS011;19508;42.578;23.416;2023-09-08T09:46:42;7.43;;;3.17;;
33150;SDS011;19508;42.578;23.416;2023-09-08T09:49:10;5.47;;;3.17;;
33150;SDS011;19508;42.578;23.416;2023-09-08T09:51:42;7.18;;;2.90;;
33150;SDS011;19508;42.578;23.416;2023-09-08T09:54:08;7.93;;;2.55;;
33150;SDS011;19508;42.578;23.416;2023-09-08T09:56:37;6.82;;;2.60;;
33150;SDS011;19508;42.578;23.416;2023-09-08T09:59:03;6.93;;;3.47;;
33150;SDS011;19508;42.578;23.416;2023-09-08T10:01:29;3.63;;;2.53;;
33150;SDS011;19508;42.578;23.416;2023-09-08T10:03:54;7.85;;;2.80;;
33150;SDS011;19508;42.578;23.416;2023-09-08T10:06:20;5.55;;;2.45;;
33150;SDS011;19508;42.578;23.416;2023-09-08T10:08:47;4.88;;;2.80;;
33150;SDS011;19508;42.578;23.416;2023-09-08T10:11:13;6.00;;;2.60;;
33150;SDS011;19508;42.578;23.416;2023-09-08T10:13:45;3.55;;;2.42;;
33150;SDS011;19508;42.578;23.416;2023-09-08T10:16:12;4.97;;;2.85;;
33150;SDS011;19508;42.578;23.416;2023-09-08T10:18:41;16.08;;;3.78;;
33150;SDS011;19508;42.578;23.416;2023-09-08T10:21:09;7.38;;;2.95;;
33150;SDS011;19508;42.578;23.416;2023-09-08T10:23:44;5.95;;;3.10;;
33150;SDS011;19508;42.578;23.416;2023-09-08T10:26:18;7.10;;;2.75;;
33150;SDS011;19508;42.578;23.416;2023-09-08T10:31:16;4.53;;;2.35;;
33150;SDS011;19508;42.578;23.416;2023-09-08T10:33:42;4.88;;;2.80;;
33150;SDS011;19508;42.578;23.416;2023-09-08T10:36:08;4.60;;;2.72;;
33150;SDS011;19508;42.578;23.416;2023-09-08T10:38:35;9.68;;;3.00;;
33150;SDS011;19508;42.578;23.416;2023-09-08T10:43:44;6.50;;;2.93;;
33150;SDS011;19508;42.578;23.416;2023-09-08T10:46:12;4.97;;;2.55;;
33150;SDS011;19508;42.578;23.416;2023-09-08T10:48:47;19.38;;;2.75;;
33150;SDS011;19508;42.578;23.416;2023-09-08T10:51:21;8.80;;;3.30;;
33150;SDS011;19508;42.578;23.416;2023-09-08T10:53:49;13.60;;;3.45;;
33150;SDS011;19508;42.578;23.416;2023-09-08T10:56:17;7.18;;;2.72;;
33150;SDS011;19508;42.578;23.416;2023-09-08T10:58:43;12.02;;;3.25;;
33150;SDS011;19508;42.578;23.416;2023-09-08T11:01:19;10.40;;;3.25;;
33150;SDS011;19508;42.578;23.416;2023-09-08T11:03:51;8.25;;;2.80;;
33150;SDS011;19508;42.578;23.416;2023-09-08T11:06:19;5.95;;;2.85;;
33150;SDS011;19508;42.578;23.416;2023-09-08T11:08:47;7.43;;;2.70;;
33150;SDS011;19508;42.578;23.416;2023-09-08T11:11:14;10.98;;;3.00;;
33150;SDS011;19508;42.578;23.416;2023-09-08T11:13:40;5.95;;;3.00;;
33150;SDS011;19508;42.578;23.416;2023-09-08T11:16:06;4.80;;;3.03;;
33150;SDS011;19508;42.578;23.416;2023-09-08T11:18:32;7.45;;;3.28;;
33150;SDS011;19508;42.578;23.416;2023-09-08T11:20:59;6.00;;;3.38;;
33150;SDS011;19508;42.578;23.416;2023-09-08T11:23:27;3.72;;;2.60;;
33150;SDS011;19508;42.578;23.416;2023-09-08T11:25:53;14.45;;;3.70;;
33150;SDS011;19508;42.578;23.416;2023-09-08T11:28:21;7.88;;;3.03;;
33150;SDS011;19508;42.578;23.416;2023-09-08T11:30:47;12.65;;;3.10;;
33150;SDS011;19508;42.578;23.416;2023-09-08T11:33:17;10.57;;;2.95;;
33150;SDS011;19508;42.578;23.416;2023-09-08T11:35:46;7.40;;;3.45;;
33150;SDS011;19508;42.578;23.416;2023-09-08T11:38:12;8.82;;;3.70;;
33150;SDS011;19508;42.578;23.416;2023-09-08T11:40:38;8.15;;;3.53;;
33150;SDS011;19508;42.578;23.416;2023-09-08T11:43:07;6.75;;;3.40;;
33150;SDS011;19508;42.578;23.416;2023-09-08T11:45:34;9.45;;;3.88;;
33150;SDS011;19508;42.578;23.416;2023-09-08T11:48:00;8.55;;;3.50;;
33150;SDS011;19508;42.578;23.416;2023-09-08T11:50:25;14.48;;;5.25;;
33150;SDS011;19508;42.578;23.416;2023-09-08T11:52:52;6.80;;;3.17;;
33150;SDS011;19508;42.578;23.416;2023-09-08T11:55:18;8.02;;;3.10;;
33150;SDS011;19508;42.578;23.416;2023-09-08T11:57:45;9.43;;;2.95;;
33150;SDS011;19508;42.578;23.416;2023-09-08T12:00:13;7.38;;;3.30;;
33150;SDS011;19508;42.578;23.416;2023-09-08T12:02:43;6.88;;;3.60;;
33150;SDS011;19508;42.578;23.416;2023-09-08T12:05:13;5.80;;;3.42;;
33150;SDS011;19508;42.578;23.416;2023-09-08T12:07:48;8.57;;;3.40;;
33150;SDS011;19508;42.578;23.416;2023-09-08T12:10:15;10.13;;;3.45;;
33150;SDS011;19508;42.578;23.416;2023-09-08T12:12:43;5.45;;;3.08;;
33150;SDS011;19508;42.578;23.416;2023-09-08T12:15:09;6.38;;;3.30;;
33150;SDS011;19508;42.578;23.416;2023-09-08T12:17:46;5.88;;;2.97;;
33150;SDS011;19508;42.578;23.416;2023-09-08T12:20:15;7.20;;;3.35;;
33150;SDS011;19508;42.578;23.416;2023-09-08T12:22:50;8.82;;;3.28;;
33150;SDS011;19508;42.578;23.416;2023-09-08T12:25:16;7.50;;;3.63;;
33150;SDS011;19508;42.578;23.416;2023-09-08T12:27:45;7.20;;;3.67;;
33150;SDS011;19508;42.578;23.416;2023-09-08T12:30:17;9.77;;;3.38;;
33150;SDS011;19508;42.578;23.416;2023-09-08T12:32:45;4.57;;;3.00;;
33150;SDS011;19508;42.578;23.416;2023-09-08T12:35:13;8.13;;;2.70;;
33150;SDS011;19508;42.578;23.416;2023-09-08T12:37:44;6.68;;;2.80;;
33150;SDS011;19508;42.578;23.416;2023-09-08T12:40:09;17.48;;;3.55;;
33150;SDS011;19508;42.578;23.416;2023-09-08T12:42:35;6.45;;;2.97;;
33150;SDS011;19508;42.578;23.416;2023-09-08T12:45:00;9.30;;;3.35;;
33150;SDS011;19508;42.578;23.416;2023-09-08T12:47:26;4.18;;;2.90;;
33150;SDS011;19508;42.578;23.416;2023-09-08T12:49:51;6.03;;;2.75;;
33150;SDS011;19508;42.578;23.416;2023-09-08T12:52:17;7.75;;;3.03;;
33150;SDS011;19508;42.578;23.416;2023-09-08T12:54:42;7.53;;;3.00;;
33150;SDS011;19508;42.578;23.416;2023-09-08T12:57:07;5.93;;;3.20;;
33150;SDS011;19508;42.578;23.416;2023-09-08T12:59:33;19.17;;;3.90;;
33150;SDS011;19508;42.578;23.416;2023-09-08T13:01:58;12.23;;;3.38;;
33150;SDS011;19508;42.578;23.416;2023-09-08T13:04:23;6.68;;;3.42;;
33150;SDS011;19508;42.578;23.416;2023-09-08T13:06:49;6.60;;;3.38;;
33150;SDS011;19508;42.578;23.416;2023-09-08T13:09:15;12.18;;;3.38;;
33150;SDS011;19508;42.578;23.416;2023-09-08T13:11:41;4.93;;;3.20;;
33150;SDS011;19508;42.578;23.416;2023-09-08T13:14:08;5.60;;;3.10;;
33150;SDS011;19508;42.578;23.416;2023-09-08T13:16:33;9.68;;;3.30;;
33150;SDS011;19508;42.578;23.416;2023-09-08T13:18:59;13.18;;;3.85;;
33150;SDS011;19508;42.578;23.416;2023-09-08T13:21:24;4.78;;;3.38;;
33150;SDS011;19508;42.578;23.416;2023-09-08T13:23:50;9.48;;;3.95;;
33150;SDS011;19508;42.578;23.416;2023-09-08T13:26:15;5.60;;;3.10;;
33150;SDS011;19508;42.578;23.416;2023-09-08T13:28:41;7.47;;;3.25;;
33150;SDS011;19508;42.578;23.416;2023-09-08T13:31:06;5.80;;;3.72;;
33150;SDS011;19508;42.578;23.416;2023-09-08T13:33:31;7.65;;;3.33;;
33150;SDS011;19508;42.578;23.416;2023-09-08T13:35:57;11.27;;;3.10;;
33150;SDS011;19508;42.578;23.416;2023-09-08T13:38:22;15.65;;;3.72;;
33150;SDS011;19508;42.578;23.416;2023-09-08T13:40:47;8.30;;;3.45;;
33150;SDS011;19508;42.578;23.416;2023-09-08T13:43:13;12.63;;;3.60;;
33150;SDS011;19508;42.578;23.416;2023-09-08T13:45:39;15.38;;;3.95;;
33150;SDS011;19508;42.578;23.416;2023-09-08T13:48:07;13.90;;;3.50;;
33150;SDS011;19508;42.578;23.416;2023-09-08T13:50:33;14.85;;;3.72;;
33150;SDS011;19508;42.578;23.416;2023-09-08T13:52:59;9.15;;;3.95;;
33150;SDS011;19508;42.578;23.416;2023-09-08T13:55:24;5.30;;;2.83;;
33150;SDS011;19508;42.578;23.416;2023-09-08T13:57:50;10.52;;;3.20;;
33150;SDS011;19508;42.578;23.416;2023-09-08T14:00:16;9.68;;;4.00;;
33150;SDS011;19508;42.578;23.416;2023-09-08T14:02:42;9.30;;;4.25;;
33150;SDS011;19508;42.578;23.416;2023-09-08T14:05:08;15.75;;;5.63;;
33150;SDS011;19508;42.578;23.416;2023-09-08T14:07:33;8.80;;;3.65;;
33150;SDS011;19508;42.578;23.416;2023-09-08T14:09:59;7.57;;;3.58;;
33150;SDS011;19508;42.578;23.416;2023-09-08T14:12:24;5.97;;;3.40;;
33150;SDS011;19508;42.578;23.416;2023-09-08T14:14:51;8.73;;;3.20;;
33150;SDS011;19508;42.578;23.416;2023-09-08T14:17:17;9.20;;;4.35;;
33150;SDS011;19508;42.578;23.416;2023-09-08T14:19:42;8.98;;;3.95;;
33150;SDS011;19508;42.578;23.416;2023-09-08T14:22:08;8.35;;;4.20;;
33150;SDS011;19508;42.578;23.416;2023-09-08T14:24:33;13.82;;;3.63;;
33150;SDS011;19508;42.578;23.416;2023-09-08T14:26:58;8.63;;;3.47;;
33150;SDS011;19508;42.578;23.416;2023-09-08T14:29:24;6.38;;;3.25;;
33150;SDS011;19508;42.578;23.416;2023-09-08T14:31:49;6.75;;;3.33;;
33150;SDS011;19508;42.578;23.416;2023-09-08T14:34:14;7.22;;;3.20;;
33150;SDS011;19508;42.578;23.416;2023-09-08T14:36:40;12.40;;;3.83;;
33150;SDS011;19508;42.578;23.416;2023-09-08T14:39:05;8.18;;;3.97;;
33150;SDS011;19508;42.578;23.416;2023-09-08T14:41:31;6.50;;;3.60;;